createdAt,value
2018-04-14T00:00:30.800Z,12.40
2018-04-14T00:02:57.664Z,12.40
2018-04-14T00:05:23.874Z,12.30
2018-04-14T00:07:50.749Z,12.40
2018-04-14T00:10:16.896Z,12.30
2018-04-14T00:12:43.031Z,12.30
2018-04-14T00:15:09.216Z,12.30
2018-04-14T00:17:36.059Z,12.30
2018-04-14T00:20:02.529Z,12.20
2018-04-14T00:22:28.707Z,12.20
2018-04-14T00:24:54.812Z,12.20
2018-04-14T00:27:20.999Z,12.20
2018-04-14T00:29:47.111Z,12.20
2018-04-14T00:32:13.251Z,12.20
2018-04-14T00:34:39.419Z,12.20
2018-04-14T00:37:06.263Z,12.10
2018-04-14T00:39:32.387Z,12.10
2018-04-14T00:41:59.235Z,12.10
2018-04-14T00:44:26.068Z,12.10
2018-04-14T00:46:52.218Z,12.10
2018-04-14T00:49:18.367Z,12.10
2018-04-14T00:51:44.467Z,12.10
2018-04-14T00:54:10.633Z,12.10
2018-04-14T00:56:36.753Z,12.10
2018-04-14T00:59:02.867Z,12.10
2018-04-14T01:01:28.987Z,12.10
2018-04-14T01:03:55.086Z,12.10
2018-04-14T01:06:21.225Z,12.10
2018-04-14T01:08:47.357Z,12.10
2018-04-14T01:11:13.470Z,12.10
2018-04-14T01:13:39.575Z,12.10
2018-04-14T01:16:06.431Z,12.10
2018-04-14T01:18:32.539Z,12.10
2018-04-14T01:20:59.899Z,12.10
2018-04-14T01:23:26.136Z,12.10
2018-04-14T01:25:52.288Z,12.20
2018-04-14T01:28:18.494Z,12.20
2018-04-14T01:30:44.617Z,12.20
2018-04-14T01:33:10.749Z,12.20
2018-04-14T01:35:36.878Z,12.20
2018-04-14T01:38:03.472Z,12.20
2018-04-14T01:40:29.582Z,12.20
2018-04-14T01:42:55.711Z,12.20
2018-04-14T01:45:21.885Z,12.30
2018-04-14T01:47:48.016Z,12.30
2018-04-14T01:50:14.134Z,12.30
2018-04-14T01:52:40.265Z,12.30
2018-04-14T01:55:06.420Z,12.40
2018-04-14T01:57:32.547Z,12.30
2018-04-14T01:59:58.752Z,12.40
2018-04-14T02:02:25.591Z,12.40
2018-04-14T02:04:51.728Z,12.40
2018-04-14T02:07:17.950Z,12.50
2018-04-14T02:09:44.833Z,12.50
2018-04-14T02:12:10.993Z,12.50
2018-04-14T02:14:37.137Z,12.50
2018-04-14T02:17:10.289Z,12.60
2018-04-14T02:19:36.460Z,12.60
2018-04-14T02:22:18.334Z,12.60
2018-04-14T02:24:52.004Z,12.60
2018-04-14T02:27:18.883Z,12.50
2018-04-14T02:29:44.986Z,12.50
2018-04-14T02:32:11.864Z,12.50
2018-04-14T02:34:37.989Z,12.40
2018-04-14T02:37:04.126Z,12.40
2018-04-14T02:39:30.281Z,12.40
2018-04-14T02:41:56.381Z,12.30
2018-04-14T02:44:22.488Z,12.30
2018-04-14T02:46:49.345Z,12.20
2018-04-14T02:49:16.227Z,12.20
2018-04-14T02:51:42.393Z,12.20
2018-04-14T02:54:08.548Z,12.20
2018-04-14T02:56:35.559Z,12.20
2018-04-14T02:59:01.706Z,12.10
2018-04-14T03:01:27.824Z,12.20
2018-04-14T03:03:53.948Z,12.20
2018-04-14T03:06:20.107Z,12.10
2018-04-14T03:08:46.305Z,12.10
2018-04-14T03:11:12.452Z,12.10
2018-04-14T03:13:38.645Z,12.10
2018-04-14T03:16:04.750Z,12.10
2018-04-14T03:18:30.860Z,12.10
2018-04-14T03:20:57.059Z,12.10
2018-04-14T03:23:23.436Z,12.10
2018-04-14T03:25:49.529Z,12.10
2018-04-14T03:28:15.783Z,12.10
2018-04-14T03:30:41.910Z,12.10
2018-04-14T03:33:08.101Z,12.10
2018-04-14T03:35:34.984Z,12.10
2018-04-14T03:38:01.109Z,12.10
2018-04-14T03:40:27.195Z,12.10
2018-04-14T03:42:54.060Z,12.10
2018-04-14T03:45:20.944Z,12.20
2018-04-14T03:47:47.080Z,12.10
2018-04-14T03:50:13.201Z,12.20
2018-04-14T03:52:39.351Z,12.20
2018-04-14T03:55:06.972Z,12.20
2018-04-14T03:57:33.853Z,12.20
2018-04-14T03:59:59.959Z,12.20
2018-04-14T04:02:26.816Z,12.20
2018-04-14T04:04:52.941Z,12.20
2018-04-14T04:07:19.879Z,12.20
2018-04-14T04:09:46.741Z,12.20
2018-04-14T04:12:12.866Z,12.20
2018-04-14T04:14:39.012Z,12.20
2018-04-14T04:17:05.143Z,12.30
2018-04-14T04:19:43.652Z,12.30
2018-04-14T04:22:22.312Z,12.30
2018-04-14T04:24:56.196Z,12.30
2018-04-14T04:27:23.095Z,12.30
2018-04-14T04:29:49.189Z,12.30
2018-04-14T04:32:16.769Z,12.30
2018-04-14T04:34:42.852Z,12.30
2018-04-14T04:37:08.914Z,12.30
2018-04-14T04:39:34.948Z,12.40
2018-04-14T04:42:01.042Z,12.30
2018-04-14T04:44:27.101Z,12.40
2018-04-14T04:46:53.150Z,12.40
2018-04-14T04:49:19.992Z,12.40
2018-04-14T04:51:46.796Z,12.40
2018-04-14T04:54:12.924Z,12.40
2018-04-14T04:56:39.149Z,12.40
2018-04-14T04:59:05.223Z,12.40
2018-04-14T05:01:31.351Z,12.50
2018-04-14T05:03:57.497Z,12.50
2018-04-14T05:06:23.772Z,12.50
2018-04-14T05:08:49.840Z,12.50
2018-04-14T05:11:15.910Z,12.50
2018-04-14T05:13:42.733Z,12.60
2018-04-14T05:16:08.820Z,12.50
2018-04-14T05:18:35.181Z,12.60
2018-04-14T05:21:01.262Z,12.60
2018-04-14T05:23:28.056Z,12.70
2018-04-14T05:25:54.132Z,12.70
2018-04-14T05:28:20.430Z,12.70
2018-04-14T05:30:46.557Z,12.80
2018-04-14T05:33:13.459Z,12.80
2018-04-14T05:35:39.508Z,12.80
2018-04-14T05:38:05.580Z,12.90
2018-04-14T05:40:31.701Z,12.90
2018-04-14T05:42:57.768Z,12.90
2018-04-14T05:45:23.872Z,13.00
2018-04-14T05:47:49.995Z,13.00
2018-04-14T05:50:16.093Z,13.00
2018-04-14T05:52:42.300Z,13.10
2018-04-14T05:55:09.146Z,13.10
2018-04-14T05:57:35.997Z,13.10
2018-04-14T06:00:02.082Z,13.10
2018-04-14T06:02:28.176Z,13.20
2018-04-14T06:04:54.984Z,13.20
2018-04-14T06:07:21.079Z,13.20
2018-04-14T06:09:48.322Z,13.20
2018-04-14T06:12:14.424Z,13.20
2018-04-14T06:14:41.413Z,13.30
2018-04-14T06:17:07.474Z,13.20
2018-04-14T06:19:33.544Z,13.30
2018-04-14T06:21:59.622Z,13.40
2018-04-14T06:24:25.694Z,13.40
2018-04-14T06:26:51.784Z,13.50
2018-04-14T06:29:17.889Z,13.50
2018-04-14T06:31:43.936Z,13.50
2018-04-14T06:34:09.984Z,13.60
2018-04-14T06:36:36.121Z,13.60
2018-04-14T06:39:02.176Z,13.70
2018-04-14T06:41:28.253Z,13.80
2018-04-14T06:43:54.309Z,13.80
2018-04-14T06:46:20.451Z,13.80
2018-04-14T06:48:53.409Z,13.90
2018-04-14T06:51:19.453Z,13.90
2018-04-14T06:53:45.500Z,13.90
2018-04-14T06:56:12.292Z,13.90
2018-04-14T06:58:39.093Z,13.90
2018-04-14T07:01:05.251Z,13.90
2018-04-14T07:03:31.374Z,13.90
2018-04-14T07:05:57.424Z,14.00
2018-04-14T07:08:23.957Z,14.00
2018-04-14T07:10:50.033Z,14.00
2018-04-14T07:13:16.143Z,14.10
2018-04-14T07:15:42.208Z,14.20
2018-04-14T07:18:08.251Z,14.30
2018-04-14T07:20:34.328Z,14.40
2018-04-14T07:23:01.160Z,14.80
2018-04-14T07:25:27.180Z,14.80
2018-04-14T07:27:53.241Z,14.90
2018-04-14T07:30:20.049Z,15.20
2018-04-14T07:32:46.088Z,15.20
2018-04-14T07:35:12.153Z,15.40
2018-04-14T07:37:38.986Z,16.00
2018-04-14T07:40:04.999Z,15.90
2018-04-14T07:42:31.044Z,16.40
2018-04-14T07:44:57.160Z,16.90
2018-04-14T07:47:23.185Z,17.40
2018-04-14T07:49:49.313Z,18.00
2018-04-14T07:52:15.402Z,18.70
2018-04-14T07:54:41.453Z,19.30
2018-04-14T07:57:07.525Z,19.80
2018-04-14T07:59:33.603Z,20.20
2018-04-14T08:01:59.696Z,20.60
2018-04-14T08:04:25.764Z,20.90
2018-04-14T08:06:52.720Z,21.30
2018-04-14T08:09:18.821Z,21.50
2018-04-14T08:11:45.650Z,22.00
2018-04-14T08:14:11.761Z,21.90
2018-04-14T08:16:38.583Z,22.50
2018-04-14T08:19:04.672Z,22.40
2018-04-14T08:21:31.491Z,23.20
2018-04-14T08:23:58.312Z,23.50
2018-04-14T08:26:24.379Z,23.40
2018-04-14T08:28:50.479Z,23.80
2018-04-14T08:31:16.542Z,24.00
2018-04-14T08:33:42.624Z,24.20
2018-04-14T08:36:09.022Z,24.40
2018-04-14T08:38:35.097Z,24.70
2018-04-14T08:41:01.172Z,24.90
2018-04-14T08:43:27.796Z,25.10
2018-04-14T08:45:53.839Z,25.40
2018-04-14T08:48:19.904Z,25.60
2018-04-14T08:50:45.958Z,25.80
2018-04-14T08:53:12.016Z,25.90
2018-04-14T08:55:38.069Z,26.00
2018-04-14T08:58:04.195Z,26.20
2018-04-14T09:00:30.268Z,26.30
2018-04-14T09:02:56.335Z,26.50
2018-04-14T09:05:22.461Z,26.70
2018-04-14T09:07:48.790Z,26.90
2018-04-14T09:10:14.830Z,27.10
2018-04-14T09:12:40.901Z,27.30
2018-04-14T09:15:14.046Z,27.50
2018-04-14T09:17:40.113Z,27.60
2018-04-14T09:20:06.274Z,27.90
2018-04-14T09:22:32.384Z,28.00
2018-04-14T09:24:58.485Z,28.20
2018-04-14T09:27:25.327Z,28.40
2018-04-14T09:29:52.197Z,28.50
2018-04-14T09:32:18.271Z,28.50
2018-04-14T09:34:45.141Z,28.60
2018-04-14T09:37:11.272Z,28.60
2018-04-14T09:39:37.656Z,28.70
2018-04-14T09:42:03.895Z,28.80
2018-04-14T09:44:30.010Z,28.80
2018-04-14T09:46:56.269Z,28.90
2018-04-14T09:49:23.132Z,28.90
2018-04-14T09:51:50.019Z,28.80
2018-04-14T09:54:16.237Z,28.80
2018-04-14T09:56:42.328Z,28.90
2018-04-14T09:59:08.493Z,28.90
2018-04-14T10:01:35.595Z,29.10
2018-04-14T10:04:01.779Z,29.00
2018-04-14T10:06:28.003Z,29.10
2018-04-14T10:08:54.217Z,29.20
2018-04-14T10:11:20.556Z,29.30
2018-04-14T10:13:46.784Z,29.30
2018-04-14T10:16:12.940Z,29.30
2018-04-14T10:18:39.056Z,29.30
2018-04-14T10:21:05.174Z,29.30
2018-04-14T10:23:31.552Z,29.10
2018-04-14T10:25:57.787Z,29.00
2018-04-14T10:28:24.039Z,28.80
2018-04-14T10:30:50.206Z,28.60
2018-04-14T10:33:16.502Z,28.40
2018-04-14T10:35:43.923Z,27.80
2018-04-14T10:38:10.049Z,27.80
2018-04-14T10:40:36.268Z,27.60
2018-04-14T10:43:02.682Z,27.30
2018-04-14T10:45:29.869Z,27.10
2018-04-14T10:47:56.041Z,27.00
2018-04-14T10:50:22.376Z,27.10
2018-04-14T10:52:49.597Z,27.00
2018-04-14T10:55:15.969Z,26.90
2018-04-14T10:57:43.139Z,26.90
2018-04-14T11:00:09.428Z,26.70
2018-04-14T11:02:35.585Z,26.70
2018-04-14T11:05:01.843Z,26.60
2018-04-14T11:07:28.200Z,26.60
2018-04-14T11:09:54.328Z,26.60
2018-04-14T11:12:21.414Z,26.60
2018-04-14T11:14:47.823Z,26.50
2018-04-14T11:17:14.141Z,26.60
2018-04-14T11:19:40.573Z,26.70
2018-04-14T11:22:06.794Z,26.80
2018-04-14T11:24:33.387Z,27.00
2018-04-14T11:27:00.314Z,27.20
2018-04-14T11:29:26.847Z,27.50
2018-04-14T11:31:53.064Z,27.70
2018-04-14T11:34:19.270Z,27.80
2018-04-14T11:36:46.317Z,28.00
2018-04-14T11:39:12.847Z,28.10
2018-04-14T11:41:39.466Z,28.10
2018-04-14T11:44:05.945Z,28.00
2018-04-14T11:46:32.531Z,27.90
2018-04-14T11:48:59.826Z,27.60
2018-04-14T11:51:26.180Z,27.50
2018-04-14T11:53:52.402Z,27.40
2018-04-14T11:56:18.512Z,27.30
2018-04-14T11:58:44.890Z,27.10
2018-04-14T12:01:11.875Z,26.80
2018-04-14T12:03:38.044Z,26.70
2018-04-14T12:06:04.940Z,26.50
2018-04-14T12:08:31.069Z,26.50
2018-04-14T12:10:57.210Z,26.40
2018-04-14T12:13:23.320Z,26.30
2018-04-14T12:15:49.470Z,26.20
2018-04-14T12:18:15.708Z,26.10
2018-04-14T12:20:41.820Z,26.10
2018-04-14T12:23:07.952Z,26.10
2018-04-14T12:25:34.104Z,26.20
2018-04-14T12:28:00.236Z,26.30
2018-04-14T12:30:26.395Z,26.40
2018-04-14T12:32:52.529Z,26.50
2018-04-14T12:35:18.668Z,26.70
2018-04-14T12:37:45.197Z,26.90
2018-04-14T12:40:11.327Z,27.10
2018-04-14T12:42:37.476Z,27.20
2018-04-14T12:45:03.604Z,27.20
2018-04-14T12:47:30.525Z,27.40
2018-04-14T12:49:56.605Z,27.30
2018-04-14T12:52:22.716Z,27.40
2018-04-14T12:54:48.825Z,27.40
2018-04-14T12:57:16.571Z,27.20
2018-04-14T12:59:42.818Z,27.20
2018-04-14T13:02:09.018Z,27.10
2018-04-14T13:04:35.855Z,26.80
2018-04-14T13:07:02.085Z,26.80
2018-04-14T13:09:28.330Z,26.70
2018-04-14T13:11:54.544Z,26.70
2018-04-14T13:14:20.717Z,26.70
2018-04-14T13:16:46.899Z,26.70
2018-04-14T13:19:13.068Z,26.60
2018-04-14T13:21:39.194Z,26.60
2018-04-14T13:24:05.351Z,26.60
2018-04-14T13:26:31.506Z,26.60
2018-04-14T13:28:57.649Z,26.60
2018-04-14T13:31:24.508Z,26.70
2018-04-14T13:33:51.421Z,26.70
2018-04-14T13:36:17.581Z,26.70
2018-04-14T13:38:44.843Z,26.70
2018-04-14T13:41:10.986Z,26.80
2018-04-14T13:43:37.156Z,26.80
2018-04-14T13:46:03.295Z,26.70
2018-04-14T13:48:30.202Z,26.60
2018-04-14T13:50:56.351Z,26.50
2018-04-14T13:53:22.497Z,26.50
2018-04-14T13:55:48.617Z,26.50
2018-04-14T13:58:14.841Z,26.40
2018-04-14T14:00:40.932Z,26.40
2018-04-14T14:03:07.045Z,26.40
2018-04-14T14:05:33.166Z,26.40
2018-04-14T14:08:00.025Z,26.40
2018-04-14T14:10:27.213Z,26.40
2018-04-14T14:12:53.332Z,26.40
2018-04-14T14:15:19.565Z,26.50
2018-04-14T14:17:45.676Z,26.50
2018-04-14T14:20:12.538Z,26.50
2018-04-14T14:22:38.936Z,26.50
2018-04-14T14:25:05.053Z,26.50
2018-04-14T14:27:31.817Z,26.50
2018-04-14T14:29:57.931Z,26.60
2018-04-14T14:32:24.086Z,26.60
2018-04-14T14:34:50.261Z,26.60
2018-04-14T14:37:16.369Z,26.70
2018-04-14T14:39:42.462Z,26.70
2018-04-14T14:42:08.541Z,26.70
2018-04-14T14:44:34.651Z,26.70
2018-04-14T14:47:01.507Z,26.70
2018-04-14T14:49:28.412Z,26.60
2018-04-14T14:51:54.533Z,26.50
2018-04-14T14:54:20.656Z,26.60
2018-04-14T14:56:46.845Z,26.50
2018-04-14T14:59:12.976Z,26.50
2018-04-14T15:01:39.859Z,26.40
2018-04-14T15:04:05.961Z,26.30
2018-04-14T15:06:32.825Z,26.30
2018-04-14T15:08:59.688Z,26.30
2018-04-14T15:11:25.813Z,26.20
2018-04-14T15:13:52.652Z,26.10
2018-04-14T15:16:19.498Z,26.10
2018-04-14T15:18:46.491Z,26.00
2018-04-14T15:21:12.620Z,25.90
2018-04-14T15:23:38.766Z,25.90
2018-04-14T15:26:05.042Z,25.90
2018-04-14T15:28:31.185Z,25.80
2018-04-14T15:30:57.351Z,25.70
2018-04-14T15:33:23.501Z,25.70
2018-04-14T15:35:49.641Z,25.60
2018-04-14T15:38:16.188Z,25.60
2018-04-14T15:40:43.024Z,25.60
2018-04-14T15:43:09.621Z,25.50
2018-04-14T15:45:35.898Z,25.50
2018-04-14T15:48:02.113Z,25.40
2018-04-14T15:50:28.413Z,25.30
2018-04-14T15:52:55.305Z,25.20
2018-04-14T15:55:21.725Z,25.10
2018-04-14T15:57:47.918Z,25.10
2018-04-14T16:00:14.617Z,25.10
2018-04-14T16:02:41.649Z,25.00
2018-04-14T16:05:07.773Z,24.90
2018-04-14T16:07:33.920Z,24.90
2018-04-14T16:10:00.115Z,24.90
2018-04-14T16:12:26.215Z,24.90
2018-04-14T16:14:52.376Z,24.80
2018-04-14T16:17:18.643Z,24.70
2018-04-14T16:19:44.920Z,24.70
2018-04-14T16:22:11.419Z,24.70
2018-04-14T16:24:37.700Z,24.60
2018-04-14T16:27:04.574Z,24.60
2018-04-14T16:29:30.786Z,24.60
2018-04-14T16:31:56.919Z,24.50
2018-04-14T16:34:23.233Z,24.40
2018-04-14T16:36:49.443Z,24.40
2018-04-14T16:39:16.903Z,24.30
2018-04-14T16:41:43.212Z,24.30
2018-04-14T16:44:09.414Z,24.30
2018-04-14T16:46:35.604Z,24.20
2018-04-14T16:49:01.843Z,24.10
2018-04-14T16:51:28.800Z,24.10
2018-04-14T16:53:55.064Z,24.00
2018-04-14T16:56:21.189Z,24.00
2018-04-14T16:58:47.301Z,24.00
2018-04-14T17:01:13.473Z,24.00
2018-04-14T17:03:39.627Z,23.90
2018-04-14T17:06:06.501Z,23.90
2018-04-14T17:08:33.344Z,23.80
2018-04-14T17:11:00.189Z,23.80
2018-04-14T17:13:26.638Z,23.80
2018-04-14T17:15:53.495Z,23.80
2018-04-14T17:18:20.343Z,23.70
2018-04-14T17:20:46.494Z,23.70
2018-04-14T17:23:12.589Z,23.70
2018-04-14T17:25:38.712Z,23.70
2018-04-14T17:28:05.751Z,23.60
2018-04-14T17:30:32.753Z,23.60
2018-04-14T17:32:58.912Z,23.50
2018-04-14T17:35:25.049Z,23.50
2018-04-14T17:37:51.289Z,23.50
2018-04-14T17:40:18.358Z,23.30
2018-04-14T17:42:44.572Z,23.20
2018-04-14T17:45:10.849Z,23.20
2018-04-14T17:47:37.010Z,23.10
2018-04-14T17:50:03.512Z,23.10
2018-04-14T17:52:29.695Z,23.00
2018-04-14T17:54:55.880Z,22.90
2018-04-14T17:57:22.052Z,22.80
2018-04-14T17:59:48.259Z,22.70
2018-04-14T18:02:15.275Z,22.50
2018-04-14T18:04:41.678Z,22.50
2018-04-14T18:07:07.939Z,22.40
2018-04-14T18:09:34.957Z,22.20
2018-04-14T18:12:01.865Z,22.20
2018-04-14T18:14:28.037Z,22.10
2018-04-14T18:16:54.182Z,22.10
2018-04-14T18:19:20.392Z,22.00
2018-04-14T18:21:47.802Z,21.80
2018-04-14T18:24:14.131Z,21.70
2018-04-14T18:26:40.569Z,21.70
2018-04-14T18:29:06.763Z,21.60
2018-04-14T18:31:32.934Z,21.50
2018-04-14T18:33:59.045Z,21.40
2018-04-14T18:36:25.184Z,21.30
2018-04-14T18:38:51.386Z,21.20
2018-04-14T18:41:18.270Z,21.10
2018-04-14T18:43:44.472Z,21.00
2018-04-14T18:46:10.650Z,20.90
2018-04-14T18:48:36.764Z,20.90
2018-04-14T18:51:02.996Z,20.80
2018-04-14T18:53:29.125Z,20.70
2018-04-14T18:55:55.268Z,20.60
2018-04-14T18:58:21.516Z,20.50
2018-04-14T19:00:47.941Z,20.40
2018-04-14T19:03:14.141Z,20.30
2018-04-14T19:05:40.270Z,20.20
2018-04-14T19:08:07.148Z,20.10
2018-04-14T19:10:33.301Z,20.00
2018-04-14T19:12:59.498Z,20.00
2018-04-14T19:15:25.678Z,19.90
2018-04-14T19:17:52.059Z,19.80
2018-04-14T19:20:18.944Z,19.70
2018-04-14T19:22:45.048Z,19.60
2018-04-14T19:25:11.253Z,19.60
2018-04-14T19:27:37.523Z,19.50
2018-04-14T19:30:03.806Z,19.40
2018-04-14T19:32:30.069Z,19.40
2018-04-14T19:34:56.182Z,19.30
2018-04-14T19:37:22.395Z,19.20
2018-04-14T19:39:49.348Z,19.00
2018-04-14T19:42:15.472Z,19.00
2018-04-14T19:44:41.600Z,19.00
2018-04-14T19:47:07.777Z,18.90
2018-04-14T19:49:33.943Z,18.80
2018-04-14T19:52:00.916Z,18.70
2018-04-14T19:54:27.079Z,18.60
2018-04-14T19:56:53.184Z,18.60
2018-04-14T19:59:19.307Z,18.50
2018-04-14T20:01:45.490Z,18.40
2018-04-14T20:04:11.619Z,18.40
2018-04-14T20:06:37.812Z,18.30
2018-04-14T20:09:04.035Z,18.20
2018-04-14T20:11:30.158Z,18.20
2018-04-14T20:13:56.284Z,18.10
2018-04-14T20:16:22.450Z,18.10
2018-04-14T20:18:48.637Z,18.00
2018-04-14T20:21:14.940Z,17.90
2018-04-14T20:23:41.096Z,17.90
2018-04-14T20:26:07.269Z,17.80
2018-04-14T20:28:33.389Z,17.80
2018-04-14T20:31:00.226Z,17.70
2018-04-14T20:33:26.357Z,17.60
2018-04-14T20:35:52.523Z,17.60
2018-04-14T20:38:18.749Z,17.50
2018-04-14T20:40:44.901Z,17.50
2018-04-14T20:43:11.021Z,17.40
2018-04-14T20:45:37.201Z,17.40
2018-04-14T20:48:03.344Z,17.30
2018-04-14T20:50:29.573Z,17.30
2018-04-14T20:52:56.047Z,17.20
2018-04-14T20:55:22.228Z,17.20
2018-04-14T20:57:48.356Z,17.10
2018-04-14T21:00:14.496Z,17.10
2018-04-14T21:02:40.639Z,17.00
2018-04-14T21:05:06.798Z,17.00
2018-04-14T21:07:40.605Z,16.90
2018-04-14T21:10:07.459Z,16.80
2018-04-14T21:12:34.368Z,16.80
2018-04-14T21:15:00.461Z,16.70
2018-04-14T21:17:26.585Z,16.70
2018-04-14T21:19:52.708Z,16.70
2018-04-14T21:22:18.919Z,16.70
2018-04-14T21:24:45.037Z,16.70
2018-04-14T21:27:11.182Z,16.60
2018-04-14T21:29:37.277Z,16.60
2018-04-14T21:32:03.405Z,16.60
2018-04-14T21:34:29.609Z,16.50
2018-04-14T21:36:55.753Z,16.50
2018-04-14T21:39:21.912Z,16.50
2018-04-14T21:41:48.065Z,16.50
2018-04-14T21:44:14.228Z,16.50
2018-04-14T21:46:41.077Z,16.40
2018-04-14T21:49:07.215Z,16.40
2018-04-14T21:51:34.056Z,16.40
2018-04-14T21:54:01.103Z,16.40
2018-04-14T21:56:27.946Z,16.40
2018-04-14T21:58:54.053Z,16.30
2018-04-14T22:01:20.161Z,16.40
2018-04-14T22:03:46.274Z,16.40
2018-04-14T22:06:12.413Z,16.30
2018-04-14T22:08:38.557Z,16.30
2018-04-14T22:11:04.767Z,16.30
2018-04-14T22:13:30.914Z,16.20
2018-04-14T22:15:57.150Z,16.20
2018-04-14T22:18:23.271Z,16.20
2018-04-14T22:20:49.428Z,16.10
2018-04-14T22:23:15.603Z,16.10
2018-04-14T22:25:42.488Z,16.00
2018-04-14T22:28:08.592Z,16.00
2018-04-14T22:30:35.457Z,16.00
2018-04-14T22:33:01.584Z,15.90
2018-04-14T22:35:27.797Z,15.90
2018-04-14T22:37:53.942Z,15.90
2018-04-14T22:40:20.576Z,15.80
2018-04-14T22:42:46.725Z,15.80
2018-04-14T22:45:12.864Z,15.70
2018-04-14T22:47:39.704Z,15.70
2018-04-14T22:50:06.821Z,15.60
2018-04-14T22:52:32.921Z,15.60
2018-04-14T22:54:59.101Z,15.60
2018-04-14T22:57:25.260Z,15.50
2018-04-14T22:59:51.528Z,15.50
2018-04-14T23:02:17.881Z,15.40
2018-04-14T23:04:44.053Z,15.40
2018-04-14T23:07:10.928Z,15.30
2018-04-14T23:09:37.063Z,15.30
2018-04-14T23:12:03.226Z,15.30
2018-04-14T23:14:29.514Z,15.30
2018-04-14T23:16:55.668Z,15.20
2018-04-14T23:19:21.800Z,15.20
2018-04-14T23:21:47.941Z,15.20
2018-04-14T23:24:14.080Z,15.10
2018-04-14T23:26:40.199Z,15.10
2018-04-14T23:29:06.313Z,15.10
2018-04-14T23:31:32.437Z,15.00
2018-04-14T23:33:59.367Z,15.00
2018-04-14T23:36:25.497Z,14.90
2018-04-14T23:38:52.368Z,14.90
2018-04-14T23:41:18.496Z,14.90
2018-04-14T23:43:45.350Z,14.80
2018-04-14T23:46:12.204Z,14.80
2018-04-14T23:48:38.316Z,14.70
2018-04-14T23:51:04.455Z,14.80
2018-04-14T23:53:31.314Z,14.70
2018-04-14T23:55:59.731Z,14.60
2018-04-14T23:58:25.844Z,14.60
